Time;durP1;ratioP1;P1;durP2;ratioP2;P2;SDS_P1;SDS_P2;PMS_P1;PMS_P2;Temp;Humidity;BMP_temperature;BMP_pressure;BME280_temperature;BME280_humidity;BME280_pressure;Samples;Min_cycle;Max_cycle;Signal;HPM_P1;HPM_P2
2024/04/22 00:00:50;;;;;;;9.23;4.90;;;18.00;45.20;;;;;;5350233;26;20475;-81
2024/04/22 00:03:17;;;;;;;6.40;4.93;;;18.00;45.30;;;;;;5346306;26;20964;-81
2024/04/22 00:05:57;;;;;;;6.40;4.60;;;18.00;45.20;;;;;;5349041;26;20479;-81
2024/04/22 00:08:24;;;;;;;8.17;5.10;;;18.00;45.10;;;;;;5345500;26;20513;-82
2024/04/22 00:11:01;;;;;;;5.93;4.50;;;18.00;45.30;;;;;;5331942;26;20485;-87
2024/04/22 00:13:32;;;;;;;7.67;4.90;;;18.00;45.20;;;;;;5345063;26;20483;-81
2024/04/22 00:16:02;;;;;;;8.93;5.50;;;17.90;45.20;;;;;;5303748;26;20478;-77
2024/04/22 00:18:30;;;;;;;6.43;5.00;;;18.00;45.30;;;;;;5347753;26;20472;-76
2024/04/22 00:21:03;;;;;;;5.20;4.33;;;17.90;45.20;;;;;;5343650;26;20498;-77
2024/04/22 00:23:31;;;;;;;6.87;5.63;;;17.90;45.30;;;;;;5343607;26;20475;-76
2024/04/22 00:26:02;;;;;;;6.40;4.43;;;17.90;45.20;;;;;;5342466;26;20596;-77
2024/04/22 00:28:30;;;;;;;7.10;4.67;;;17.80;45.30;;;;;;5333098;26;20565;-77
2024/04/22 00:31:00;;;;;;;7.10;4.90;;;17.80;45.40;;;;;;5332343;26;20536;-80
2024/04/22 00:33:27;;;;;;;7.43;5.40;;;17.80;45.30;;;;;;5341241;26;20480;-80
2024/04/22 00:35:58;;;;;;;5.87;4.50;;;17.80;45.30;;;;;;5331665;26;20561;-77
2024/04/22 00:38:28;;;;;;;7.10;5.13;;;17.80;45.40;;;;;;5338087;26;20551;-77
2024/04/22 00:40:59;;;;;;;7.53;4.97;;;17.70;45.50;;;;;;5320159;26;20466;-79
2024/04/22 00:43:26;;;;;;;5.93;4.67;;;17.70;45.40;;;;;;5348412;26;20489;-80
2024/04/22 00:45:56;;;;;;;6.63;4.70;;;17.70;45.40;;;;;;5328873;26;20524;-77
2024/04/22 00:48:23;;;;;;;6.20;4.93;;;17.70;45.50;;;;;;5335629;26;20602;-77
2024/04/22 00:50:53;;;;;;;5.33;4.23;;;17.70;45.40;;;;;;5343493;26;20467;-80
2024/04/22 00:53:21;;;;;;;6.60;4.80;;;17.70;45.40;;;;;;5341417;26;20831;-78
2024/04/22 00:55:53;;;;;;;8.03;5.00;;;17.60;45.50;;;;;;5339743;26;20523;-77
2024/04/22 00:58:21;;;;;;;4.73;4.23;;;17.60;45.40;;;;;;5342902;26;20533;-80
2024/04/22 01:00:51;;;;;;;5.10;4.23;;;17.60;45.50;;;;;;5335055;26;20460;-77
2024/04/22 01:03:18;;;;;;;5.97;4.70;;;17.60;45.40;;;;;;5334204;26;20471;-77
2024/04/22 01:05:48;;;;;;;6.53;4.77;;;17.60;45.60;;;;;;5343776;26;20488;-78
2024/04/22 01:08:16;;;;;;;6.50;4.63;;;17.60;45.60;;;;;;5348983;26;20530;-79
2024/04/22 01:10:46;;;;;;;6.20;4.77;;;17.50;45.40;;;;;;5343177;26;20471;-77
2024/04/22 01:13:16;;;;;;;5.37;4.33;;;17.50;45.50;;;;;;5344059;26;20513;-77
2024/04/22 01:15:46;;;;;;;5.50;4.80;;;17.50;45.40;;;;;;5339732;26;20503;-77
2024/04/22 01:18:16;;;;;;;4.70;4.07;;;17.50;45.40;;;;;;5299188;26;20512;-77
2024/04/22 01:20:46;;;;;;;7.07;5.10;;;17.50;45.40;;;;;;5327781;26;21191;-77
2024/04/22 01:23:17;;;;;;;4.00;3.60;;;17.50;45.50;;;;;;5342427;26;20503;-76
2024/04/22 01:25:49;;;;;;;5.67;4.40;;;17.50;45.60;;;;;;5331454;26;20543;-77
2024/04/22 01:28:16;;;;;;;5.43;4.13;;;17.40;45.40;;;;;;5332378;26;20584;-77
2024/04/22 01:30:46;;;;;;;5.23;4.27;;;17.40;45.50;;;;;;5345891;26;20523;-77
2024/04/22 01:33:14;;;;;;;4.80;3.90;;;17.40;45.60;;;;;;5305476;26;20531;-77
2024/04/22 01:35:44;;;;;;;4.20;3.70;;;17.40;45.50;;;;;;5335593;26;20496;-77
2024/04/22 01:38:12;;;;;;;4.73;4.20;;;17.40;45.60;;;;;;5343655;26;20593;-77
2024/04/22 01:40:44;;;;;;;4.30;3.90;;;17.50;45.50;;;;;;5337198;26;20487;-80
2024/04/22 01:43:12;;;;;;;4.93;3.53;;;17.50;45.50;;;;;;5328292;26;20467;-77
2024/04/22 01:45:42;;;;;;;6.23;3.73;;;17.40;45.40;;;;;;5343257;26;20550;-77
2024/04/22 01:48:10;;;;;;;6.37;3.70;;;17.40;45.50;;;;;;5354698;26;20495;-77
2024/04/22 01:50:40;;;;;;;5.30;4.20;;;17.40;45.50;;;;;;5342528;26;20556;-77
2024/04/22 01:53:07;;;;;;;4.70;4.13;;;17.30;45.40;;;;;;5340006;26;20475;-75
2024/04/22 01:55:37;;;;;;;4.97;3.90;;;17.30;45.40;;;;;;5342887;26;20512;-77
2024/04/22 01:58:07;;;;;;;4.83;4.03;;;17.30;45.30;;;;;;5352445;26;20514;-76
2024/04/22 02:00:39;;;;;;;7.83;4.60;;;17.30;45.50;;;;;;5342957;26;20464;-77
2024/04/22 02:03:06;;;;;;;5.03;4.00;;;17.20;45.50;;;;;;5320112;26;20469;-76
2024/04/22 02:05:36;;;;;;;6.50;4.73;;;17.20;45.50;;;;;;5326339;26;20469;-75
2024/04/22 02:08:04;;;;;;;7.30;4.57;;;17.20;45.60;;;;;;5327192;26;20527;-76
2024/04/22 02:10:34;;;;;;;6.63;4.20;;;17.20;45.50;;;;;;5345824;26;20467;-76
2024/04/22 02:13:01;;;;;;;4.90;4.23;;;17.20;45.50;;;;;;5346236;26;20472;-76
2024/04/22 02:15:34;;;;;;;6.07;4.47;;;17.20;45.50;;;;;;5315538;26;20487;-76
2024/04/22 02:18:01;;;;;;;16.53;10.93;;;17.20;45.50;;;;;;5353178;26;21150;-77
2024/04/22 02:20:31;;;;;;;21.77;12.30;;;17.20;45.30;;;;;;5332471;26;20535;-77
2024/04/22 02:22:59;;;;;;;19.40;12.67;;;17.10;45.40;;;;;;5355205;26;20460;-77
2024/04/22 02:25:29;;;;;;;25.87;14.27;;;17.10;45.60;;;;;;5292929;26;21013;-77
2024/04/22 02:27:56;;;;;;;29.07;16.70;;;17.10;45.50;;;;;;5293990;26;20511;-77
2024/04/22 02:30:26;;;;;;;29.90;18.63;;;17.10;45.40;;;;;;5329225;26;20479;-80
2024/04/22 02:32:56;;;;;;;29.60;17.50;;;17.10;45.40;;;;;;5308879;26;20484;-79
2024/04/22 02:35:26;;;;;;;31.53;19.20;;;17.00;45.30;;;;;;5339903;26;20491;-78
2024/04/22 02:37:54;;;;;;;34.40;20.17;;;17.00;45.40;;;;;;5299829;26;20475;-76
2024/04/22 02:40:24;;;;;;;36.33;20.90;;;17.00;45.40;;;;;;5334644;26;20468;-76
2024/04/22 02:42:51;;;;;;;34.53;21.17;;;17.00;45.50;;;;;;5353887;26;20471;-77
2024/04/22 02:45:22;;;;;;;35.50;21.30;;;17.00;45.50;;;;;;5354917;26;20476;-77
2024/04/22 02:47:49;;;;;;;40.43;22.60;;;17.00;45.50;;;;;;5345312;26;20559;-76
2024/04/22 02:50:22;;;;;;;38.60;22.80;;;17.00;45.50;;;;;;5319565;26;20477;-80
2024/04/22 02:52:49;;;;;;;35.83;21.80;;;17.00;45.60;;;;;;5342739;26;20484;-78
2024/04/22 02:55:20;;;;;;;36.77;21.40;;;16.90;45.50;;;;;;5346998;26;20582;-77
2024/04/22 02:57:47;;;;;;;37.20;21.93;;;17.00;45.50;;;;;;5346457;26;20468;-81
2024/04/22 03:00:17;;;;;;;38.47;23.37;;;17.00;45.50;;;;;;5339424;26;20467;-76
2024/04/22 03:02:45;;;;;;;36.97;22.63;;;16.90;45.40;;;;;;5342025;26;20463;-76
2024/04/22 03:05:15;;;;;;;36.67;22.10;;;16.90;45.50;;;;;;5332857;26;20481;-77
2024/04/22 03:07:45;;;;;;;37.70;22.27;;;16.90;45.40;;;;;;5306902;26;20519;-76
2024/04/22 03:10:15;;;;;;;41.20;22.30;;;16.90;45.40;;;;;;5301677;26;20488;-77
2024/04/22 03:12:42;;;;;;;38.10;22.40;;;16.90;45.40;;;;;;5333516;26;20469;-77
2024/04/22 03:15:12;;;;;;;34.93;21.67;;;16.90;45.60;;;;;;5352843;26;20487;-77
2024/04/22 03:17:39;;;;;;;35.47;21.57;;;16.90;45.40;;;;;;5361145;26;20535;-77
2024/04/22 03:20:11;;;;;;;35.30;21.10;;;16.90;45.40;;;;;;5330095;26;20522;-77
2024/04/22 03:22:39;;;;;;;35.10;20.47;;;16.90;45.80;;;;;;5330118;26;20472;-76
2024/04/22 03:25:12;;;;;;;35.40;21.67;;;16.80;45.40;;;;;;5323053;26;20475;-77
2024/04/22 03:27:40;;;;;;;35.17;20.77;;;16.80;45.40;;;;;;5308773;26;21050;-77
2024/04/22 03:30:11;;;;;;;34.43;20.27;;;16.80;45.50;;;;;;5305258;26;20496;-77
2024/04/22 03:32:38;;;;;;;33.47;20.60;;;16.80;45.50;;;;;;5343194;26;20575;-77
2024/04/22 03:35:09;;;;;;;31.03;19.80;;;16.80;45.60;;;;;;5323455;26;20464;-77
2024/04/22 03:37:39;;;;;;;32.90;20.00;;;16.80;45.70;;;;;;5331350;26;20576;-77
2024/04/22 03:40:12;;;;;;;34.87;20.50;;;16.80;45.60;;;;;;5369980;26;20815;-79
2024/04/22 03:42:42;;;;;;;34.73;20.37;;;16.80;45.50;;;;;;5331324;26;20471;-77
2024/04/22 03:45:12;;;;;;;32.50;19.53;;;16.80;45.50;;;;;;5361355;26;20521;-79
2024/04/22 03:50:40;;;;;;;29.53;18.83;;;16.70;45.50;;;;;;5241537;27;20588;-77
2024/04/22 03:53:11;;;;;;;31.83;18.40;;;16.70;46.00;;;;;;5321893;26;20542;-80
2024/04/22 03:55:43;;;;;;;29.17;18.47;;;16.70;45.60;;;;;;5345011;26;20476;-77
2024/04/22 03:58:14;;;;;;;29.63;18.07;;;16.70;45.60;;;;;;5306496;26;20528;-77
2024/04/22 04:00:44;;;;;;;28.93;16.97;;;16.70;45.60;;;;;;5341426;26;20515;-77
2024/04/22 04:03:11;;;;;;;29.10;17.00;;;16.70;45.60;;;;;;5344705;26;20468;-78
2024/04/22 04:05:41;;;;;;;26.83;16.10;;;16.70;45.80;;;;;;5328534;26;20596;-77
2024/04/22 04:08:08;;;;;;;27.83;16.70;;;16.70;45.90;;;;;;5352330;26;20484;-77
2024/04/22 04:10:38;;;;;;;24.13;15.07;;;16.70;45.80;;;;;;5343699;26;20475;-77
2024/04/22 04:13:08;;;;;;;27.70;16.70;;;16.70;45.90;;;;;;5345892;26;20545;-77
2024/04/22 04:15:39;;;;;;;26.50;15.80;;;16.70;45.90;;;;;;5311670;26;20522;-77
2024/04/22 04:18:06;;;;;;;24.53;15.10;;;16.70;46.00;;;;;;5351243;26;20484;-77
2024/04/22 04:20:36;;;;;;;22.20;13.50;;;16.70;45.90;;;;;;5344841;26;20460;-77
2024/04/22 04:23:03;;;;;;;22.17;13.90;;;16.70;46.10;;;;;;5355154;26;20472;-77
2024/04/22 04:25:35;;;;;;;23.30;13.90;;;16.70;46.10;;;;;;5344432;26;20471;-80
2024/04/22 04:28:04;;;;;;;23.80;14.20;;;16.70;46.10;;;;;;5345365;26;20479;-77
2024/04/22 04:30:36;;;;;;;22.30;13.47;;;16.80;46.20;;;;;;5344284;26;20516;-77
2024/04/22 04:33:04;;;;;;;20.93;12.70;;;16.70;46.10;;;;;;5320738;26;20558;-77
2024/04/22 04:35:34;;;;;;;18.93;12.70;;;16.70;46.00;;;;;;5336346;26;20473;-77
2024/04/22 04:38:02;;;;;;;20.30;12.97;;;16.70;46.00;;;;;;5337674;26;20841;-77
2024/04/22 04:40:32;;;;;;;20.10;12.73;;;16.70;46.00;;;;;;5326434;26;20582;-77
2024/04/22 04:42:59;;;;;;;20.80;12.30;;;16.70;45.90;;;;;;5343465;26;20511;-76
2024/04/22 04:45:29;;;;;;;18.83;12.00;;;16.70;46.00;;;;;;5352657;26;20490;-76
2024/04/22 04:47:59;;;;;;;18.80;12.10;;;16.70;46.00;;;;;;5334899;26;20472;-77
2024/04/22 04:50:30;;;;;;;18.70;12.43;;;16.70;45.80;;;;;;5341609;26;20527;-78
2024/04/22 04:52:58;;;;;;;16.50;11.30;;;16.70;45.70;;;;;;5324675;26;20487;-79
2024/04/22 04:55:28;;;;;;;20.60;12.63;;;16.80;45.80;;;;;;5344242;26;20926;-77
2024/04/22 04:57:56;;;;;;;20.90;12.60;;;16.70;45.70;;;;;;5343517;26;20477;-77
2024/04/22 05:00:26;;;;;;;18.00;11.50;;;16.70;45.80;;;;;;5360472;26;20523;-80
2024/04/22 05:02:53;;;;;;;16.50;11.30;;;16.70;45.80;;;;;;5356075;26;20473;-77
2024/04/22 05:05:26;;;;;;;18.17;11.77;;;16.70;45.70;;;;;;5344476;26;20559;-78
2024/04/22 05:07:55;;;;;;;17.53;10.93;;;16.80;45.70;;;;;;5343760;26;20460;-77
2024/04/22 05:10:25;;;;;;;16.83;11.20;;;16.70;45.60;;;;;;5358372;26;20522;-79
2024/04/22 05:12:52;;;;;;;15.47;10.50;;;16.70;45.70;;;;;;5345765;26;20520;-82
2024/04/22 05:15:24;;;;;;;15.20;10.37;;;16.80;45.60;;;;;;5335982;26;20833;-77
2024/04/22 05:17:54;;;;;;;16.70;11.00;;;16.80;45.60;;;;;;5319256;26;20480;-76
2024/04/22 05:20:29;;;;;;;16.17;9.97;;;16.80;45.60;;;;;;5329797;26;20876;-77
2024/04/22 05:23:00;;;;;;;14.20;9.93;;;16.80;45.50;;;;;;5322808;26;20550;-77
2024/04/22 05:25:27;;;;;;;14.20;9.27;;;16.70;45.40;;;;;;5335543;26;20550;-78
2024/04/22 05:27:57;;;;;;;15.10;10.50;;;16.70;45.40;;;;;;5343978;26;20491;-77
2024/04/22 05:30:25;;;;;;;14.00;10.00;;;16.80;45.60;;;;;;5315006;26;20479;-77
2024/04/22 05:32:55;;;;;;;14.23;9.60;;;16.80;45.40;;;;;;5340474;26;20491;-77
2024/04/22 05:38:21;;;;;;;14.90;9.87;;;16.80;45.20;;;;;;5244268;26;20475;-77
2024/04/22 05:40:51;;;;;;;14.17;9.50;;;16.80;45.30;;;;;;5334714;26;20469;-78
2024/04/22 05:43:21;;;;;;;14.47;9.67;;;16.80;45.20;;;;;;5341013;26;20518;-77
2024/04/22 05:45:51;;;;;;;13.50;9.63;;;16.80;45.20;;;;;;5335406;26;20471;-79
2024/04/22 05:48:21;;;;;;;15.70;9.63;;;16.80;45.80;;;;;;5345309;26;20574;-78
2024/04/22 05:50:53;;;;;;;14.03;9.10;;;16.80;45.30;;;;;;5346333;26;21027;-77
2024/04/22 05:53:23;;;;;;;12.90;9.10;;;16.80;45.20;;;;;;5344441;26;20512;-81
2024/04/22 05:55:53;;;;;;;13.47;8.53;;;16.80;45.30;;;;;;5335791;26;20489;-77
2024/04/22 05:58:20;;;;;;;13.17;9.13;;;16.80;45.20;;;;;;5341948;26;20523;-78
2024/04/22 06:00:50;;;;;;;13.67;9.07;;;16.80;45.30;;;;;;5346927;26;20510;-77
2024/04/22 06:03:17;;;;;;;12.40;8.30;;;16.80;45.40;;;;;;5359167;26;20475;-80
2024/04/22 06:05:47;;;;;;;11.73;8.20;;;16.80;45.50;;;;;;5368010;26;20479;-78
2024/04/22 06:08:17;;;;;;;12.30;8.60;;;16.80;45.60;;;;;;5348310;26;21004;-78
2024/04/22 06:10:47;;;;;;;13.30;8.80;;;16.80;45.50;;;;;;5330526;26;20560;-78
2024/04/22 06:13:15;;;;;;;11.40;8.40;;;16.80;45.40;;;;;;5346380;26;20480;-78
2024/04/22 06:15:45;;;;;;;12.83;8.93;;;16.80;45.40;;;;;;5345644;26;20490;-79
2024/04/22 06:18:12;;;;;;;13.97;7.87;;;16.80;45.40;;;;;;5314917;26;20584;-81
2024/04/22 06:20:42;;;;;;;9.87;7.50;;;16.90;45.40;;;;;;5325223;26;20518;-78
2024/04/22 06:23:12;;;;;;;9.27;7.10;;;16.80;45.30;;;;;;5344111;26;20487;-78
2024/04/22 06:25:42;;;;;;;10.23;7.33;;;16.90;45.40;;;;;;5342005;26;20614;-78
2024/04/22 06:28:12;;;;;;;9.30;6.63;;;16.90;45.30;;;;;;5331894;26;20542;-78
2024/04/22 06:30:39;;;;;;;9.30;6.90;;;16.90;45.10;;;;;;5337856;26;20529;-78
2024/04/22 06:33:15;;;;;;;9.70;7.13;;;16.90;45.20;;;;;;5334150;26;20552;-79
2024/04/22 06:35:46;;;;;;;9.87;7.00;;;16.90;45.00;;;;;;5330239;26;20513;-77
2024/04/22 06:38:18;;;;;;;9.67;6.77;;;16.90;45.00;;;;;;5348912;26;20500;-82
2024/04/22 06:40:48;;;;;;;9.33;6.87;;;17.00;45.00;;;;;;5312654;26;20584;-81
2024/04/22 06:43:18;;;;;;;8.83;7.00;;;17.00;45.00;;;;;;5346926;26;20464;-81
2024/04/22 06:45:45;;;;;;;9.00;6.87;;;17.00;45.00;;;;;;5345098;26;20518;-79
2024/04/22 06:48:15;;;;;;;7.27;6.13;;;17.00;45.00;;;;;;5343984;26;20463;-79
2024/04/22 06:50:43;;;;;;;8.90;6.50;;;17.00;45.00;;;;;;5333971;26;20527;-78
2024/04/22 06:53:13;;;;;;;8.50;6.40;;;17.00;45.10;;;;;;5344287;26;20465;-79
2024/04/22 06:55:41;;;;;;;9.57;7.07;;;17.10;45.10;;;;;;5337143;26;20527;-78
2024/04/22 06:58:14;;;;;;;8.90;6.60;;;17.10;45.00;;;;;;5344585;26;20532;-79
2024/04/22 07:00:41;;;;;;;8.10;6.53;;;17.10;44.80;;;;;;5359304;26;20543;-82
2024/04/22 07:03:12;;;;;;;7.40;5.80;;;17.10;44.80;;;;;;5354490;26;20506;-78
2024/04/22 07:05:39;;;;;;;6.97;5.40;;;17.10;44.90;;;;;;5332409;26;20471;-78
2024/04/22 07:08:09;;;;;;;7.97;5.63;;;17.10;44.90;;;;;;5340389;26;21018;-78
2024/04/22 07:10:37;;;;;;;8.53;6.20;;;17.20;45.10;;;;;;5345524;26;20480;-78
2024/04/22 07:13:07;;;;;;;6.30;5.60;;;17.20;45.00;;;;;;5346476;26;20476;-78
2024/04/22 07:15:37;;;;;;;7.73;6.07;;;17.20;45.00;;;;;;5334049;26;20524;-78
2024/04/22 07:18:07;;;;;;;9.20;6.10;;;17.20;44.80;;;;;;5338993;26;20492;-78
2024/04/22 07:20:35;;;;;;;7.80;5.80;;;17.30;45.10;;;;;;5345749;26;20487;-79
2024/04/22 07:23:06;;;;;;;7.10;5.97;;;17.30;44.90;;;;;;5345780;26;20512;-79
2024/04/22 07:25:34;;;;;;;6.90;5.90;;;17.30;45.00;;;;;;5349029;26;20492;-78
2024/04/22 07:28:05;;;;;;;6.93;5.27;;;17.40;45.00;;;;;;5340444;26;20595;-79
2024/04/22 07:30:33;;;;;;;7.13;5.50;;;17.40;45.00;;;;;;5327441;26;20460;-77
2024/04/22 07:33:07;;;;;;;8.17;5.07;;;17.40;45.00;;;;;;5343848;26;20483;-78
2024/04/22 07:35:36;;;;;;;7.70;5.37;;;17.40;45.00;;;;;;5312625;26;20473;-77
2024/04/22 07:38:07;;;;;;;7.90;5.63;;;17.50;45.00;;;;;;5372015;26;20466;-81
2024/04/22 07:40:35;;;;;;;7.17;5.37;;;17.40;45.00;;;;;;5314917;26;20489;-79
2024/04/22 07:43:05;;;;;;;6.47;5.20;;;17.50;45.00;;;;;;5345383;26;20539;-76
2024/04/22 07:45:32;;;;;;;6.03;4.97;;;17.40;44.90;;;;;;5344270;26;20479;-76
2024/04/22 07:48:03;;;;;;;5.40;4.63;;;17.40;45.00;;;;;;5344878;26;20487;-77
2024/04/22 07:50:33;;;;;;;6.50;4.70;;;17.50;45.10;;;;;;5334874;26;20468;-77
2024/04/22 07:53:03;;;;;;;6.07;5.00;;;17.50;45.20;;;;;;5338680;26;20577;-77
2024/04/22 07:55:34;;;;;;;6.80;5.03;;;17.60;45.40;;;;;;5345074;26;20472;-76
2024/04/22 07:58:05;;;;;;;5.17;4.67;;;17.60;45.20;;;;;;5344539;26;20535;-77
2024/04/22 08:00:35;;;;;;;7.23;5.10;;;17.80;45.20;;;;;;5344852;26;20535;-78
2024/04/22 08:03:06;;;;;;;5.73;4.80;;;17.80;45.10;;;;;;5344907;26;20519;-77
2024/04/22 08:05:42;;;;;;;5.60;4.60;;;17.90;45.10;;;;;;5342023;26;20484;-78
2024/04/22 08:08:10;;;;;;;5.60;4.20;;;18.00;44.90;;;;;;5329855;26;20487;-77
2024/04/22 08:10:42;;;;;;;6.70;4.50;;;18.10;44.70;;;;;;5344620;26;20475;-81
2024/04/22 08:13:12;;;;;;;9.53;4.00;;;17.80;42.60;;;;;;5348040;26;21089;-80
2024/04/22 08:15:46;;;;;;;5.77;5.03;;;16.90;44.20;;;;;;5348853;26;20467;-81
2024/04/22 08:18:17;;;;;;;4.70;4.17;;;16.90;42.20;;;;;;5356007;26;20860;-82
2024/04/22 08:20:50;;;;;;;7.90;4.40;;;15.80;40.90;;;;;;5353339;26;20542;-83
2024/04/22 08:23:17;;;;;;;7.93;4.00;;;15.80;44.30;;;;;;5356165;26;20539;-81
2024/04/22 08:25:47;;;;;;;4.40;4.07;;;16.00;41.40;;;;;;5350118;26;20557;-80
2024/04/22 08:28:15;;;;;;;3.77;3.47;;;16.30;43.60;;;;;;5343368;26;20483;-78
2024/04/22 08:30:45;;;;;;;4.30;3.33;;;17.10;42.80;;;;;;5344842;26;20495;-78
2024/04/22 08:33:12;;;;;;;3.20;2.53;;;17.80;41.80;;;;;;5314017;26;20467;-77
2024/04/22 08:35:48;;;;;;;4.10;3.17;;;18.40;41.10;;;;;;5344933;26;20472;-81
2024/04/22 08:38:16;;;;;;;4.60;2.30;;;18.90;40.70;;;;;;5308123;26;20481;-78
2024/04/22 08:40:47;;;;;;;2.97;2.43;;;19.30;40.30;;;;;;5350270;26;20583;-79
2024/04/22 08:43:15;;;;;;;2.13;1.93;;;19.60;40.30;;;;;;5352591;26;20484;-79
2024/04/22 08:45:46;;;;;;;7.23;2.43;;;19.90;40.20;;;;;;5325942;26;20483;-75
2024/04/22 08:48:14;;;;;;;2.47;2.27;;;20.20;40.20;;;;;;5352861;26;20558;-76
2024/04/22 08:50:44;;;;;;;2.70;2.50;;;20.50;40.10;;;;;;5351224;26;20467;-78
2024/04/22 08:53:14;;;;;;;1.80;1.70;;;20.70;40.10;;;;;;5347257;26;20879;-79
2024/04/22 10:03:42;;;;;;;1.70;1.60;;;24.50;40.70;;;;;;5168244;27;20470;-77
2024/04/22 10:06:09;;;;;;;1.30;1.20;;;24.70;40.90;;;;;;5160536;27;20482;-78
2024/04/22 10:08:39;;;;;;;2.17;1.60;;;25.00;40.80;;;;;;5160744;27;20916;-78
2024/04/22 10:11:07;;;;;;;3.07;1.50;;;25.20;40.60;;;;;;5126061;27;20559;-80
2024/04/22 10:13:39;;;;;;;1.70;1.60;;;25.40;40.60;;;;;;5148653;27;21054;-79
2024/04/22 10:16:12;;;;;;;2.40;1.60;;;25.60;40.60;;;;;;5148105;27;20982;-83
2024/04/22 10:18:50;;;;;;;1.57;1.50;;;25.90;40.40;;;;;;5116620;27;20601;-79
2024/04/22 10:21:19;;;;;;;1.87;1.77;;;26.10;40.30;;;;;;5150346;27;20476;-81
2024/04/22 10:23:50;;;;;;;1.73;1.40;;;26.40;40.00;;;;;;5131204;27;20482;-78
2024/04/22 10:26:17;;;;;;;1.63;1.47;;;26.60;39.70;;;;;;5132721;27;21017;-83
2024/04/22 10:28:48;;;;;;;1.60;1.50;;;26.70;39.50;;;;;;5146860;27;20571;-79
2024/04/22 10:31:19;;;;;;;1.40;1.40;;;26.80;39.20;;;;;;5143720;27;20506;-80
2024/04/22 10:33:52;;;;;;;1.50;1.50;;;26.90;39.10;;;;;;5147864;27;20524;-80
2024/04/22 10:36:20;;;;;;;1.60;1.37;;;26.90;39.00;;;;;;5147765;27;21116;-80
2024/04/22 10:38:50;;;;;;;1.30;1.20;;;26.90;39.00;;;;;;5146917;27;20545;-83
2024/04/22 10:41:18;;;;;;;2.63;1.30;;;26.90;39.00;;;;;;5148195;27;20440;-83
2024/04/22 10:43:49;;;;;;;1.40;1.30;;;26.70;38.80;;;;;;5148376;27;20555;-81
2024/04/22 10:46:17;;;;;;;2.40;1.40;;;26.60;38.90;;;;;;5147544;27;20531;-80
2024/04/22 10:48:49;;;;;;;1.67;1.57;;;26.40;39.10;;;;;;5149533;27;20599;-82
2024/04/22 10:54:33;;;;;;;1.40;1.40;;;26.00;39.60;;;;;;5126777;27;20485;-81
2024/04/22 10:57:00;;;;;;;1.83;1.73;;;25.70;39.60;;;;;;5146801;27;20499;-80
2024/04/22 10:59:30;;;;;;;1.70;1.60;;;25.50;39.90;;;;;;5137201;27;20510;-79
2024/04/22 11:01:58;;;;;;;1.60;1.47;;;25.30;40.00;;;;;;5134431;27;20452;-78
2024/04/22 11:04:28;;;;;;;1.40;1.30;;;25.10;40.30;;;;;;5118637;27;20468;-78
2024/04/22 11:06:59;;;;;;;1.40;1.30;;;25.00;40.60;;;;;;5128439;27;20492;-78
2024/04/22 11:09:30;;;;;;;1.60;1.50;;;24.80;40.70;;;;;;5114125;27;20520;-81
2024/04/22 11:11:58;;;;;;;1.57;1.47;;;24.70;40.90;;;;;;5147569;27;20563;-80
2024/04/22 11:14:28;;;;;;;2.80;1.60;;;24.60;40.90;;;;;;5130394;27;20511;-78
2024/04/22 11:16:56;;;;;;;2.00;1.73;;;24.60;41.10;;;;;;5135233;27;20538;-78
2024/04/22 11:19:27;;;;;;;2.03;1.93;;;24.60;41.20;;;;;;5126815;27;20493;-78
2024/04/22 11:21:54;;;;;;;1.67;1.57;;;24.70;41.20;;;;;;5137420;27;20536;-79
2024/04/22 11:24:28;;;;;;;1.73;1.63;;;24.70;41.10;;;;;;5147206;27;20480;-77
2024/04/22 11:26:56;;;;;;;1.50;1.40;;;24.70;41.10;;;;;;5148537;27;20480;-78
2024/04/22 11:29:26;;;;;;;2.60;1.50;;;24.70;40.90;;;;;;5136625;27;20527;-79
2024/04/22 11:31:54;;;;;;;1.50;1.50;;;24.70;41.10;;;;;;5142445;27;20504;-77
2024/04/22 11:34:24;;;;;;;1.70;1.60;;;24.70;40.80;;;;;;5146560;27;20613;-77
2024/04/22 11:36:56;;;;;;;2.00;1.90;;;24.60;41.00;;;;;;5144885;27;20452;-78
2024/04/22 11:39:30;;;;;;;1.60;1.50;;;24.50;41.00;;;;;;5103529;27;20520;-80
2024/04/22 11:41:58;;;;;;;1.77;1.53;;;24.40;41.10;;;;;;5135120;27;20468;-79
2024/04/22 11:44:28;;;;;;;1.90;1.80;;;24.40;41.20;;;;;;5146402;27;20533;-77
2024/04/22 11:46:55;;;;;;;1.87;1.77;;;24.30;41.20;;;;;;5141829;27;20484;-77
2024/04/22 11:49:26;;;;;;;1.90;1.70;;;24.20;41.20;;;;;;5113205;27;20484;-78
2024/04/22 11:51:53;;;;;;;1.80;1.70;;;24.20;41.30;;;;;;5143252;27;20527;-77
2024/04/22 11:54:23;;;;;;;1.60;1.50;;;24.10;41.20;;;;;;5107502;28;20477;-77
2024/04/22 11:56:53;;;;;;;3.97;2.20;;;24.10;41.80;;;;;;5137038;27;20480;-79
2024/04/22 11:59:23;;;;;;;2.00;1.90;;;24.10;41.30;;;;;;5145239;27;20492;-78
2024/04/22 12:01:51;;;;;;;1.63;1.53;;;24.10;41.30;;;;;;5139310;27;20590;-78
2024/04/22 12:04:21;;;;;;;3.63;1.67;;;24.00;41.20;;;;;;5136526;27;20495;-78
2024/04/22 12:06:49;;;;;;;1.80;1.60;;;24.00;41.40;;;;;;5135899;27;21154;-78
2024/04/22 12:09:19;;;;;;;1.70;1.60;;;23.90;41.40;;;;;;5136206;27;20577;-77
2024/04/22 12:11:46;;;;;;;2.00;1.63;;;23.90;42.00;;;;;;5141480;27;20543;-77
2024/04/22 12:14:19;;;;;;;1.70;1.60;;;23.90;41.40;;;;;;5130351;27;20966;-76
2024/04/22 12:16:48;;;;;;;1.60;1.50;;;23.90;41.40;;;;;;5123889;27;20561;-79
2024/04/22 12:19:18;;;;;;;1.33;1.33;;;23.90;41.40;;;;;;5143163;27;20585;-77
2024/04/22 12:21:46;;;;;;;1.80;1.70;;;23.80;42.10;;;;;;5144184;27;20574;-78
2024/04/22 12:24:16;;;;;;;1.70;1.57;;;23.80;41.40;;;;;;5144915;27;20479;-77
2024/04/22 12:26:43;;;;;;;2.20;2.00;;;23.90;41.50;;;;;;5116544;27;20587;-78
2024/04/22 12:29:13;;;;;;;1.80;1.67;;;24.00;41.40;;;;;;5144657;27;20584;-78
2024/04/22 12:31:43;;;;;;;2.37;2.17;;;24.10;41.40;;;;;;5121501;27;20525;-79
2024/04/22 12:34:15;;;;;;;1.70;1.60;;;24.10;41.00;;;;;;5125317;27;20508;-79
2024/04/22 12:36:44;;;;;;;1.93;1.80;;;24.20;41.10;;;;;;5126461;27;20486;-78
2024/04/22 12:39:14;;;;;;;2.50;1.83;;;24.20;41.00;;;;;;5139033;27;20581;-77
2024/04/22 12:41:44;;;;;;;1.67;1.57;;;24.30;41.00;;;;;;5135627;27;20476;-83
2024/04/22 12:44:14;;;;;;;2.53;1.80;;;24.50;41.00;;;;;;5130330;27;20607;-77
2024/04/22 12:52:18;;;;;;;1.50;1.40;;;25.00;40.80;;;;;;5118990;27;20491;-78
2024/04/22 12:54:48;;;;;;;1.90;1.80;;;26.00;41.20;;;;;;5131833;27;20485;-79
2024/04/22 12:57:18;;;;;;;1.87;1.77;;;28.00;38.30;;;;;;5130618;27;20468;-79
2024/04/22 12:59:48;;;;;;;2.60;1.40;;;28.60;36.20;;;;;;5138728;27;21083;-78
2024/04/22 13:02:22;;;;;;;1.40;1.40;;;30.30;35.90;;;;;;5126655;27;21352;-80
2024/04/22 13:04:58;;;;;;;1.40;1.30;;;32.00;33.60;;;;;;5146480;27;20484;-79
2024/04/22 13:07:31;;;;;;;3.10;1.30;;;33.50;31.40;;;;;;5111656;27;20533;-79
2024/04/22 15:17:14;;;;;;;1.97;1.70;;;28.00;37.00;;;;;;4545116;21;20865;31
2024/04/22 15:19:42;;;;;;;2.00;1.90;;;27.80;37.40;;;;;;5202959;27;20518;-81
2024/04/22 15:22:13;;;;;;;1.80;1.70;;;27.60;37.70;;;;;;5176976;27;20913;-80
2024/04/22 15:24:59;;;;;;;1.80;1.80;;;27.40;38.00;;;;;;5213569;27;20473;-84
2024/04/22 15:27:35;;;;;;;1.73;1.63;;;27.20;38.20;;;;;;5198160;27;20923;-80
2024/04/22 15:30:05;;;;;;;1.90;1.80;;;27.10;38.40;;;;;;5211161;27;20485;-79
2024/04/22 15:32:41;;;;;;;1.87;1.70;;;27.00;38.70;;;;;;5200404;27;20461;-79
2024/04/22 15:35:08;;;;;;;2.20;2.00;;;26.80;38.90;;;;;;5202485;27;20493;-78
2024/04/22 15:37:38;;;;;;;1.93;1.83;;;26.70;39.00;;;;;;5209392;27;20571;-78
2024/04/22 15:40:07;;;;;;;1.73;1.63;;;26.60;38.80;;;;;;5206801;27;20501;-79
2024/04/22 15:42:37;;;;;;;1.77;1.67;;;26.50;38.90;;;;;;5189491;27;20616;-79
2024/04/22 15:45:05;;;;;;;2.50;1.60;;;26.40;38.90;;;;;;5176251;27;21146;-83
2024/04/22 15:47:37;;;;;;;2.27;1.87;;;26.30;39.00;;;;;;5212879;27;20484;-79
2024/04/22 15:50:05;;;;;;;1.70;1.60;;;26.10;39.10;;;;;;5206405;27;20520;-82
2024/04/22 15:52:36;;;;;;;1.40;1.40;;;26.10;39.20;;;;;;5205137;27;20457;-79
2024/04/22 15:55:03;;;;;;;1.67;1.67;;;25.90;39.40;;;;;;5209565;27;20457;-79
2024/04/22 15:57:35;;;;;;;1.73;1.63;;;25.80;39.50;;;;;;5202661;27;20516;-79
2024/04/22 16:00:03;;;;;;;1.93;1.83;;;25.80;39.60;;;;;;5202150;27;20477;-81
2024/04/22 16:02:42;;;;;;;1.77;1.67;;;25.70;39.70;;;;;;5189495;27;20539;-79
2024/04/22 16:05:10;;;;;;;2.20;1.90;;;25.60;39.70;;;;;;5194257;27;21052;-79
2024/04/22 16:07:40;;;;;;;1.80;1.70;;;25.40;39.80;;;;;;5181237;27;20494;-79
2024/04/22 16:10:07;;;;;;;1.60;1.50;;;25.30;40.00;;;;;;5176608;27;20514;-79
2024/04/22 16:12:38;;;;;;;1.50;1.40;;;25.20;40.20;;;;;;5178016;27;20479;-79
2024/04/22 16:15:05;;;;;;;1.70;1.60;;;25.10;40.30;;;;;;5192550;27;20478;-81
2024/04/22 16:17:36;;;;;;;1.60;1.50;;;25.00;40.40;;;;;;5203251;27;20494;-78
2024/04/22 16:20:07;;;;;;;2.07;1.70;;;24.90;40.40;;;;;;5203522;27;20575;-78
2024/04/22 16:22:37;;;;;;;1.77;1.67;;;24.80;40.40;;;;;;5199657;27;20482;-78